Time;durP1;ratioP1;P1;durP2;ratioP2;P2;SDS_P1;SDS_P2;PMS_P1;PMS_P2;Temp;Humidity;BMP_temperature;BMP_pressure;BME280_temperature;BME280_humidity;BME280_pressure;Samples;Min_cycle;Max_cycle;Signal;HPM_P1;HPM_P2
2021/06/22 00:00:37;;;;;;;14.93;5.22;;;;;;;;;;4988634;28;20125;-83
2021/06/22 00:03:04;;;;;;;21.05;5.88;;;;;;;;;;4994075;28;20054;-84
2021/06/22 00:05:32;;;;;;;11.93;5.55;;;;;;;;;;4980017;28;20057;-84
2021/06/22 00:07:59;;;;;;;20.08;6.05;;;;;;;;;;4975169;28;20081;-85
2021/06/22 00:10:28;;;;;;;12.07;5.97;;;;;;;;;;4976968;28;20074;-84
2021/06/22 00:12:55;;;;;;;16.73;6.30;;;;;;;;;;4989337;28;20486;-85
2021/06/22 00:15:23;;;;;;;12.38;6.57;;;;;;;;;;4967225;28;20094;-84
2021/06/22 00:17:51;;;;;;;17.80;6.88;;;;;;;;;;4953847;28;20057;-84
2021/06/22 00:20:20;;;;;;;23.83;7.03;;;;;;;;;;4973227;28;20129;-82
2021/06/22 00:22:48;;;;;;;20.25;6.82;;;;;;;;;;4975264;28;20054;-82
2021/06/22 00:25:16;;;;;;;20.38;7.18;;;;;;;;;;4973339;28;20086;-81
2021/06/22 00:27:44;;;;;;;19.17;7.00;;;;;;;;;;4974138;28;20563;-82
2021/06/22 00:30:12;;;;;;;18.55;7.10;;;;;;;;;;4974305;28;20154;-82
2021/06/22 00:32:42;;;;;;;21.67;7.30;;;;;;;;;;4973829;28;20126;-82
2021/06/22 00:35:10;;;;;;;22.23;6.82;;;;;;;;;;4974162;28;20489;-82
2021/06/22 00:37:38;;;;;;;12.35;6.82;;;;;;;;;;4973626;28;20141;-81
2021/06/22 00:40:05;;;;;;;16.40;6.65;;;;;;;;;;4979878;28;20085;-81
2021/06/22 00:42:33;;;;;;;20.33;6.97;;;;;;;;;;4980381;28;20681;-82
2021/06/22 00:45:00;;;;;;;19.08;6.88;;;;;;;;;;4974070;28;20578;-82
2021/06/22 00:47:28;;;;;;;19.35;7.68;;;;;;;;;;4975315;28;20058;-82
2021/06/22 00:49:56;;;;;;;18.25;7.50;;;;;;;;;;4978106;28;20089;-82
2021/06/22 00:52:24;;;;;;;17.48;7.63;;;;;;;;;;4972813;28;20081;-81
2021/06/22 00:54:51;;;;;;;24.92;7.38;;;;;;;;;;4974749;28;20047;-82
2021/06/22 00:57:19;;;;;;;19.52;7.88;;;;;;;;;;4974737;28;20075;-81
2021/06/22 00:59:49;;;;;;;19.85;6.72;;;;;;;;;;4973310;28;20058;-83
2021/06/22 01:02:17;;;;;;;16.48;7.10;;;;;;;;;;4989491;28;20081;-82
2021/06/22 01:04:44;;;;;;;16.20;7.22;;;;;;;;;;4987310;28;20043;-82
2021/06/22 01:07:13;;;;;;;23.23;7.75;;;;;;;;;;4972895;28;20086;-82
2021/06/22 01:09:40;;;;;;;13.35;7.07;;;;;;;;;;4984259;28;20093;-83
2021/06/22 01:12:08;;;;;;;17.17;8.02;;;;;;;;;;4975836;28;20154;-82
2021/06/22 01:14:40;;;;;;;15.98;7.40;;;;;;;;;;4963628;28;20050;-83
2021/06/22 01:17:07;;;;;;;21.42;8.57;;;;;;;;;;4972710;28;20090;-82
2021/06/22 01:19:35;;;;;;;18.45;7.10;;;;;;;;;;4979795;28;20129;-82
2021/06/22 01:22:03;;;;;;;18.17;7.88;;;;;;;;;;4985287;28;20149;-82
2021/06/22 01:24:32;;;;;;;16.98;7.88;;;;;;;;;;4992823;28;20100;-82
2021/06/22 01:26:59;;;;;;;27.15;9.10;;;;;;;;;;4990790;28;20086;-82
2021/06/22 01:29:27;;;;;;;14.40;8.10;;;;;;;;;;4980464;28;20223;-82
2021/06/22 01:31:55;;;;;;;17.23;7.97;;;;;;;;;;4991298;28;20165;-82
2021/06/22 01:34:26;;;;;;;19.45;6.88;;;;;;;;;;4991649;28;20479;-82
2021/06/22 01:36:54;;;;;;;13.75;7.25;;;;;;;;;;4991640;28;20133;-82
2021/06/22 01:39:21;;;;;;;14.18;6.90;;;;;;;;;;4989477;28;20082;-82
2021/06/22 01:41:49;;;;;;;14.73;7.43;;;;;;;;;;4991832;28;20054;-82
2021/06/22 01:44:16;;;;;;;15.38;6.30;;;;;;;;;;4992179;28;20462;-82
2021/06/22 01:46:44;;;;;;;15.15;5.82;;;;;;;;;;4993007;28;20133;-82
2021/06/22 01:49:11;;;;;;;14.05;5.65;;;;;;;;;;4977231;28;20086;-81
2021/06/22 01:51:39;;;;;;;16.05;6.25;;;;;;;;;;4967133;28;20078;-82
2021/06/22 01:54:06;;;;;;;11.13;5.35;;;;;;;;;;4991084;28;20543;-82
2021/06/22 01:56:41;;;;;;;10.57;5.68;;;;;;;;;;4987377;28;20738;-82
2021/06/22 01:59:08;;;;;;;;;;;;;;;;;;4978688;28;20129;-81
2021/06/22 02:01:35;;;;;;;13.52;6.03;;;;;;;;;;4991654;28;20769;-82
2021/06/22 02:04:03;;;;;;;10.27;5.82;;;;;;;;;;4973159;28;20414;-81
2021/06/22 02:06:32;;;;;;;15.68;6.07;;;;;;;;;;4972058;28;20137;-81
2021/06/22 02:08:59;;;;;;;14.43;7.00;;;;;;;;;;4975673;28;20097;-82
2021/06/22 02:11:26;;;;;;;14.55;6.30;;;;;;;;;;4991792;28;20117;-83
2021/06/22 02:13:54;;;;;;;12.65;6.03;;;;;;;;;;4991288;28;20082;-81
2021/06/22 02:16:22;;;;;;;9.38;6.03;;;;;;;;;;4990362;28;20142;-83
2021/06/22 02:18:49;;;;;;;18.80;7.60;;;;;;;;;;4980918;28;20450;-82
2021/06/22 02:21:16;;;;;;;12.98;7.55;;;;;;;;;;4991264;28;20745;-83
2021/06/22 02:23:44;;;;;;;15.38;7.55;;;;;;;;;;4990369;28;20587;-83
2021/06/22 02:26:11;;;;;;;16.15;7.35;;;;;;;;;;4990003;28;20137;-83
2021/06/22 02:28:38;;;;;;;19.70;7.45;;;;;;;;;;4980311;28;20082;-83
2021/06/22 02:31:05;;;;;;;15.65;7.80;;;;;;;;;;4991003;28;20133;-82
2021/06/22 02:33:33;;;;;;;17.10;7.53;;;;;;;;;;4974352;28;20514;-82
2021/06/22 02:36:00;;;;;;;18.90;7.78;;;;;;;;;;4971095;28;20138;-82
2021/06/22 02:38:27;;;;;;;20.15;7.65;;;;;;;;;;4982350;28;20129;-82
2021/06/22 02:40:54;;;;;;;16.17;6.50;;;;;;;;;;4991025;28;20070;-83
2021/06/22 02:43:21;;;;;;;18.25;7.28;;;;;;;;;;4991083;28;20054;-83
2021/06/22 02:45:51;;;;;;;12.60;6.55;;;;;;;;;;4976644;28;20078;-82
2021/06/22 02:48:18;;;;;;;25.08;6.57;;;;;;;;;;4966368;28;20082;-82
2021/06/22 02:50:45;;;;;;;19.20;5.95;;;;;;;;;;4980854;28;20136;-82
2021/06/22 02:53:13;;;;;;;15.20;6.53;;;;;;;;;;4990178;28;20720;-82
2021/06/22 02:55:40;;;;;;;24.33;6.43;;;;;;;;;;4988006;28;20476;-82
2021/06/22 02:58:07;;;;;;;16.63;6.57;;;;;;;;;;4991445;28;20666;-83
2021/06/22 03:00:35;;;;;;;17.38;6.22;;;;;;;;;;4979346;28;20081;-82
2021/06/22 03:03:05;;;;;;;14.75;5.88;;;;;;;;;;4986896;28;20086;-82
2021/06/22 03:05:32;;;;;;;16.27;6.90;;;;;;;;;;4969010;28;20082;-82
2021/06/22 03:08:00;;;;;;;17.48;7.10;;;;;;;;;;4962850;28;20066;-82
2021/06/22 03:10:27;;;;;;;17.10;6.75;;;;;;;;;;4971908;28;20054;-83
2021/06/22 03:12:57;;;;;;;15.02;6.50;;;;;;;;;;4959725;28;20067;-82
2021/06/22 03:15:25;;;;;;;16.08;6.03;;;;;;;;;;4966209;28;20133;-83
2021/06/22 03:17:53;;;;;;;20.52;6.65;;;;;;;;;;4970234;28;20058;-84
2021/06/22 03:20:20;;;;;;;15.63;5.88;;;;;;;;;;4969358;28;20097;-84
2021/06/22 03:22:51;;;;;;;17.48;6.70;;;;;;;;;;4971562;28;20750;-85
2021/06/22 03:25:18;;;;;;;18.52;6.25;;;;;;;;;;4966130;28;20712;-87
2021/06/22 03:27:47;;;;;;;17.55;6.00;;;;;;;;;;4952237;28;20149;-83
2021/06/22 03:30:15;;;;;;;17.15;6.65;;;;;;;;;;4969586;28;20130;-83
2021/06/22 03:32:45;;;;;;;18.33;7.28;;;;;;;;;;4951453;28;20145;-84
2021/06/22 03:35:12;;;;;;;21.20;6.80;;;;;;;;;;4954280;28;20154;-85
2021/06/22 03:37:40;;;;;;;22.63;6.78;;;;;;;;;;4958145;28;20089;-83
2021/06/22 03:40:07;;;;;;;18.70;6.88;;;;;;;;;;4958410;28;20086;-82
2021/06/22 03:42:35;;;;;;;20.40;6.35;;;;;;;;;;4957680;28;20082;-83
2021/06/22 03:45:07;;;;;;;15.13;5.93;;;;;;;;;;4969161;28;20118;-83
2021/06/22 03:47:45;;;;;;;21.80;6.30;;;;;;;;;;4953320;28;20130;-82
2021/06/22 03:50:14;;;;;;;17.90;6.47;;;;;;;;;;4950788;29;20126;-83
2021/06/22 03:52:42;;;;;;;17.48;6.60;;;;;;;;;;4950358;29;20123;-82
2021/06/22 03:57:58;;;;;;;19.50;5.43;;;;;;;;;;4951866;29;20078;-83
2021/06/22 04:00:27;;;;;;;18.05;6.55;;;;;;;;;;4950284;29;20059;-82
2021/06/22 04:02:59;;;;;;;16.75;6.30;;;;;;;;;;4951416;29;20705;-82
2021/06/22 04:05:32;;;;;;;18.60;4.95;;;;;;;;;;4978656;28;20086;-83
2021/06/22 04:08:00;;;;;;;17.60;5.10;;;;;;;;;;5024596;22;20036;-82
2021/06/22 04:10:29;;;;;;;12.00;4.75;;;;;;;;;;5067266;28;20044;-84
2021/06/22 04:12:56;;;;;;;21.02;4.93;;;;;;;;;;5031269;28;20135;-83
2021/06/22 04:15:25;;;;;;;16.38;4.53;;;;;;;;;;5031377;28;20693;-83
2021/06/22 04:18:09;;;;;;;13.20;4.20;;;;;;;;;;5045260;28;20044;-83
2021/06/22 04:20:37;;;;;;;18.15;5.38;;;;;;;;;;5038629;28;20079;-82
2021/06/22 04:23:06;;;;;;;16.17;5.10;;;;;;;;;;5031472;28;20083;-81
2021/06/22 04:25:34;;;;;;;21.70;5.18;;;;;;;;;;5032585;28;20137;-83
2021/06/22 04:28:11;;;;;;;13.23;5.30;;;;;;;;;;5062146;28;20116;-82
2021/06/22 04:30:39;;;;;;;14.82;5.15;;;;;;;;;;5035268;28;20048;-82
2021/06/22 04:33:15;;;;;;;17.08;5.35;;;;;;;;;;5050388;28;20131;-82
2021/06/22 04:35:44;;;;;;;18.60;4.85;;;;;;;;;;5054924;28;20048;-80
2021/06/22 04:38:11;;;;;;;13.85;4.63;;;;;;;;;;5071630;28;20386;-81
2021/06/22 04:40:39;;;;;;;12.38;4.32;;;;;;;;;;5052869;28;20091;-80
2021/06/22 04:43:10;;;;;;;8.65;4.10;;;;;;;;;;5055158;28;20128;-84
2021/06/22 04:45:38;;;;;;;20.88;4.30;;;;;;;;;;5054840;28;20052;-82
2021/06/22 04:48:05;;;;;;;16.27;5.10;;;;;;;;;;5046459;28;20127;-80
2021/06/22 04:50:33;;;;;;;12.82;4.50;;;;;;;;;;5071396;28;20114;-79
2021/06/22 04:53:00;;;;;;;19.35;4.97;;;;;;;;;;5050765;28;20036;-80
2021/06/22 04:55:27;;;;;;;16.80;4.70;;;;;;;;;;5051668;28;20045;-80
2021/06/22 04:57:59;;;;;;;8.80;4.35;;;;;;;;;;5033724;28;20137;-79
2021/06/22 05:00:27;;;;;;;9.60;4.22;;;;;;;;;;5034343;28;20133;-79
2021/06/22 05:02:55;;;;;;;16.33;3.65;;;;;;;;;;5066757;28;20037;-81
2021/06/22 05:05:22;;;;;;;15.10;4.30;;;;;;;;;;5053055;28;20124;-81
2021/06/22 05:07:50;;;;;;;9.80;4.75;;;;;;;;;;5050712;28;20041;-80
2021/06/22 05:10:17;;;;;;;8.98;3.63;;;;;;;;;;5038556;28;20195;-79
2021/06/22 05:12:45;;;;;;;15.95;3.92;;;;;;;;;;5051971;28;20478;-79
2021/06/22 05:15:17;;;;;;;13.98;4.13;;;;;;;;;;5056684;28;20131;-80
2021/06/22 05:17:45;;;;;;;15.95;4.70;;;;;;;;;;5045554;28;20045;-82
2021/06/22 05:20:12;;;;;;;14.25;4.55;;;;;;;;;;5046561;28;20231;-79
2021/06/22 05:22:39;;;;;;;16.85;3.92;;;;;;;;;;5049275;28;20084;-80
2021/06/22 05:25:07;;;;;;;13.30;3.85;;;;;;;;;;5034443;28;20455;-79
2021/06/22 05:27:34;;;;;;;6.82;3.38;;;;;;;;;;5047663;28;20445;-79
2021/06/22 05:30:01;;;;;;;8.38;3.58;;;;;;;;;;5029505;28;20092;-79
2021/06/22 05:32:28;;;;;;;11.65;3.95;;;;;;;;;;5048163;28;20056;-79
2021/06/22 05:34:56;;;;;;;15.75;3.72;;;;;;;;;;5030086;28;20129;-80
2021/06/22 05:37:24;;;;;;;12.35;4.18;;;;;;;;;;5049792;28;20091;-79
2021/06/22 05:39:52;;;;;;;11.05;3.78;;;;;;;;;;5067245;28;20368;-79
2021/06/22 05:42:19;;;;;;;11.48;3.50;;;;;;;;;;5068968;28;20131;-79
2021/06/22 05:44:47;;;;;;;10.40;3.78;;;;;;;;;;5044305;28;20108;-78
2021/06/22 05:47:14;;;;;;;16.13;3.63;;;;;;;;;;5048700;28;20059;-80
2021/06/22 05:49:41;;;;;;;15.15;3.33;;;;;;;;;;5030796;28;20446;-79
2021/06/22 05:52:08;;;;;;;6.13;3.28;;;;;;;;;;5049339;28;20147;-80
2021/06/22 05:54:37;;;;;;;9.38;3.53;;;;;;;;;;5051908;28;20056;-79
2021/06/22 05:57:05;;;;;;;14.40;3.75;;;;;;;;;;5035916;28;20171;-80
2021/06/22 05:59:33;;;;;;;14.02;3.25;;;;;;;;;;5042314;28;20135;-79
2021/06/22 06:02:00;;;;;;;9.45;3.28;;;;;;;;;;5068749;28;20480;-82
2021/06/22 06:04:28;;;;;;;9.20;3.58;;;;;;;;;;5059601;28;20556;-79
2021/06/22 06:06:56;;;;;;;18.13;3.85;;;;;;;;;;5036889;28;20599;-79
2021/06/22 06:09:26;;;;;;;11.35;4.05;;;;;;;;;;5048333;28;20083;-78
2021/06/22 06:11:54;;;;;;;20.27;4.18;;;;;;;;;;5049031;28;20088;-79
2021/06/22 06:14:21;;;;;;;14.02;4.18;;;;;;;;;;5036219;28;20051;-81
2021/06/22 06:16:49;;;;;;;15.93;3.70;;;;;;;;;;5069702;28;20048;-79
2021/06/22 06:19:16;;;;;;;10.43;4.03;;;;;;;;;;5039597;28;20122;-79
2021/06/22 06:21:44;;;;;;;12.27;3.97;;;;;;;;;;5027283;28;20061;-80
2021/06/22 06:24:11;;;;;;;25.02;4.47;;;;;;;;;;5031577;28;20076;-79
2021/06/22 06:26:52;;;;;;;16.48;4.22;;;;;;;;;;5051526;28;20092;-81
2021/06/22 06:31:56;;;;;;;15.70;4.43;;;;;;;;;;5067401;28;20094;-79
2021/06/22 06:34:23;;;;;;;14.38;4.38;;;;;;;;;;5062692;28;20037;-81
2021/06/22 06:36:50;;;;;;;20.30;4.47;;;;;;;;;;5048252;28;20487;-80
2021/06/22 06:39:18;;;;;;;14.40;4.00;;;;;;;;;;5047090;28;20053;-79
2021/06/22 06:41:45;;;;;;;22.90;4.95;;;;;;;;;;5047285;28;20140;-79
2021/06/22 06:44:12;;;;;;;15.38;4.20;;;;;;;;;;5031752;28;20140;-79
2021/06/22 06:46:39;;;;;;;9.43;4.55;;;;;;;;;;5066697;28;20494;-79
2021/06/22 06:49:06;;;;;;;17.27;4.57;;;;;;;;;;5068022;28;20044;-79
2021/06/22 06:51:34;;;;;;;24.83;4.68;;;;;;;;;;5069988;28;20756;-78
2021/06/22 06:54:01;;;;;;;17.85;4.10;;;;;;;;;;5070453;28;20535;-79
2021/06/22 06:56:28;;;;;;;16.42;3.38;;;;;;;;;;5053093;28;20075;-79
2021/06/22 06:59:01;;;;;;;23.70;4.60;;;;;;;;;;5070031;28;20049;-78
2021/06/22 07:01:28;;;;;;;13.88;3.85;;;;;;;;;;5069521;28;20124;-78
2021/06/22 07:03:56;;;;;;;17.88;3.65;;;;;;;;;;5069159;28;20469;-79
2021/06/22 07:06:23;;;;;;;10.27;4.00;;;;;;;;;;5070261;28;20054;-80
2021/06/22 07:08:50;;;;;;;15.48;3.83;;;;;;;;;;5070067;28;20082;-79
2021/06/22 07:11:21;;;;;;;15.23;3.75;;;;;;;;;;5062096;28;20773;-79
2021/06/22 07:13:52;;;;;;;16.27;3.38;;;;;;;;;;5052121;28;20536;-79
2021/06/22 07:16:19;;;;;;;19.08;4.85;;;;;;;;;;5051665;28;20124;-79
2021/06/22 07:18:47;;;;;;;21.85;4.57;;;;;;;;;;5051166;28;20528;-78
2021/06/22 07:21:16;;;;;;;15.40;4.10;;;;;;;;;;5060182;28;20144;-78
2021/06/22 07:23:43;;;;;;;10.95;3.90;;;;;;;;;;5049348;28;20095;-78
2021/06/22 07:26:32;;;;;;;12.85;4.30;;;;;;;;;;5048990;28;20051;-79
2021/06/22 07:29:01;;;;;;;13.07;4.20;;;;;;;;;;5048380;28;20053;-78
2021/06/22 07:31:28;;;;;;;9.63;3.63;;;;;;;;;;5033466;28;20636;-79
2021/06/22 07:33:56;;;;;;;18.90;4.15;;;;;;;;;;5060003;28;20079;-79
2021/06/22 07:36:23;;;;;;;20.45;5.13;;;;;;;;;;5066692;28;20132;-79
2021/06/22 07:38:50;;;;;;;17.33;4.32;;;;;;;;;;5065220;28;20155;-79
2021/06/22 07:41:18;;;;;;;15.52;4.00;;;;;;;;;;5048330;28;20133;-80
2021/06/22 07:43:46;;;;;;;14.13;4.38;;;;;;;;;;5046677;28;20124;-80
2021/06/22 07:46:13;;;;;;;13.90;4.53;;;;;;;;;;5028970;28;20084;-79
2021/06/22 07:48:40;;;;;;;18.23;3.95;;;;;;;;;;5046893;28;20049;-78
2021/06/22 07:51:07;;;;;;;16.23;4.47;;;;;;;;;;5046824;28;20072;-79
2021/06/22 07:53:35;;;;;;;16.17;4.03;;;;;;;;;;5047076;28;20283;-80
2021/06/22 07:56:03;;;;;;;10.52;4.10;;;;;;;;;;5047275;28;20747;-79
2021/06/22 07:58:30;;;;;;;10.65;3.97;;;;;;;;;;5028976;28;20144;-79
2021/06/22 08:00:57;;;;;;;14.05;4.65;;;;;;;;;;5048185;28;20072;-81
2021/06/22 08:03:27;;;;;;;14.88;4.10;;;;;;;;;;5046689;28;20117;-81
2021/06/22 08:05:54;;;;;;;12.45;3.90;;;;;;;;;;5052570;28;20091;-82
2021/06/22 08:08:22;;;;;;;12.35;3.58;;;;;;;;;;5052311;28;20500;-81
2021/06/22 08:10:51;;;;;;;14.73;3.58;;;;;;;;;;5052391;28;20087;-81
2021/06/22 08:13:24;;;;;;;12.48;3.72;;;;;;;;;;5055666;28;20087;-79
2021/06/22 08:15:52;;;;;;;13.15;4.00;;;;;;;;;;5049879;28;20088;-79
2021/06/22 08:18:19;;;;;;;13.90;3.97;;;;;;;;;;5049600;28;20044;-79
2021/06/22 08:20:47;;;;;;;9.82;3.30;;;;;;;;;;5031827;28;20128;-80
2021/06/22 08:23:14;;;;;;;14.90;3.95;;;;;;;;;;5040919;28;20489;-79
2021/06/22 08:25:41;;;;;;;16.98;3.55;;;;;;;;;;5050627;28;20548;-79
2021/06/22 08:28:09;;;;;;;13.57;3.83;;;;;;;;;;5067552;28;20139;-79
2021/06/22 08:30:36;;;;;;;15.45;4.22;;;;;;;;;;5068021;28;20143;-79
2021/06/22 08:33:04;;;;;;;13.30;3.70;;;;;;;;;;5043104;28;20055;-81
2021/06/22 08:35:32;;;;;;;16.45;3.88;;;;;;;;;;5031616;28;20537;-79
2021/06/22 08:38:00;;;;;;;18.05;4.72;;;;;;;;;;5050666;28;20055;-80
2021/06/22 08:40:27;;;;;;;15.57;3.58;;;;;;;;;;5032317;28;20525;-80
2021/06/22 08:42:55;;;;;;;9.07;3.45;;;;;;;;;;5055654;28;20751;-79
2021/06/22 08:45:23;;;;;;;11.63;3.90;;;;;;;;;;5051895;28;20084;-80
2021/06/22 08:47:50;;;;;;;13.05;3.50;;;;;;;;;;5052824;28;20084;-80
2021/06/22 08:50:18;;;;;;;15.35;4.10;;;;;;;;;;5052012;28;20189;-80
2021/06/22 08:52:46;;;;;;;13.40;3.72;;;;;;;;;;5069177;28;20714;-80
2021/06/22 08:55:31;;;;;;;10.40;3.88;;;;;;;;;;5043223;28;20127;-79
2021/06/22 08:58:06;;;;;;;14.30;4.38;;;;;;;;;;5051290;28;20040;-80
2021/06/22 09:00:39;;;;;;;14.88;3.70;;;;;;;;;;5069459;28;20709;-78
2021/06/22 09:03:10;;;;;;;13.25;3.85;;;;;;;;;;5066395;28;20048;-80
2021/06/22 09:05:41;;;;;;;10.18;3.78;;;;;;;;;;5045411;28;20045;-79
2021/06/22 09:08:18;;;;;;;16.95;3.95;;;;;;;;;;5068199;28;20822;-79
2021/06/22 09:10:46;;;;;;;10.82;3.55;;;;;;;;;;5067627;28;20132;-79
2021/06/22 09:13:16;;;;;;;17.02;4.30;;;;;;;;;;5048097;28;20493;-79
2021/06/22 09:15:44;;;;;;;22.13;3.42;;;;;;;;;;5046837;28;20099;-80
2021/06/22 09:18:29;;;;;;;10.27;3.83;;;;;;;;;;5048688;28;20080;-79
2021/06/22 09:20:58;;;;;;;15.20;4.20;;;;;;;;;;5030543;28;20080;-79
2021/06/22 09:23:27;;;;;;;14.77;3.78;;;;;;;;;;5056487;28;20135;-79
2021/06/22 09:25:56;;;;;;;10.85;3.20;;;;;;;;;;5050359;28;20748;-81
2021/06/22 09:28:24;;;;;;;7.82;2.90;;;;;;;;;;5067458;28;20875;-79
2021/06/22 09:30:56;;;;;;;8.32;3.58;;;;;;;;;;5067994;28;20167;-80
2021/06/22 09:33:29;;;;;;;10.68;3.85;;;;;;;;;;5066447;28;20076;-80
2021/06/22 09:35:58;;;;;;;10.88;3.45;;;;;;;;;;5068245;28;20105;-80
2021/06/22 09:38:28;;;;;;;14.50;3.35;;;;;;;;;;5066132;28;20135;-79
2021/06/22 09:41:03;;;;;;;12.43;3.90;;;;;;;;;;5065469;28;20051;-80
2021/06/22 09:43:41;;;;;;;16.02;3.53;;;;;;;;;;5067551;28;20056;-79
2021/06/22 09:46:09;;;;;;;11.82;3.33;;;;;;;;;;5065297;28;20066;-80
2021/06/22 09:48:56;;;;;;;15.20;3.92;;;;;;;;;;5047329;28;20763;-79
2021/06/22 09:51:30;;;;;;;10.63;3.08;;;;;;;;;;5049893;28;20135;-79
2021/06/22 09:54:12;;;;;;;14.27;3.33;;;;;;;;;;5048631;28;20071;-79
2021/06/22 09:56:50;;;;;;;10.82;3.03;;;;;;;;;;5067234;28;20703;-80
2021/06/22 09:59:18;;;;;;;6.68;2.90;;;;;;;;;;5067207;28;20087;-79
2021/06/22 10:01:45;;;;;;;10.82;3.47;;;;;;;;;;5066634;28;20127;-80
2021/06/22 10:04:15;;;;;;;15.32;3.35;;;;;;;;;;5052406;28;20098;-80
2021/06/22 10:06:47;;;;;;;13.57;2.88;;;;;;;;;;5069110;28;20135;-80
2021/06/22 10:09:41;;;;;;;6.47;2.35;;;;;;;;;;5068167;28;20056;-80
2021/06/22 10:12:09;;;;;;;10.27;2.78;;;;;;;;;;5065589;28;20132;-79
2021/06/22 10:14:50;;;;;;;9.20;2.65;;;;;;;;;;5050065;28;20128;-79
2021/06/22 10:17:18;;;;;;;7.32;3.45;;;;;;;;;;5047321;28;20092;-79
2021/06/22 10:19:47;;;;;;;10.38;3.30;;;;;;;;;;5029210;28;20148;-79
2021/06/22 10:22:16;;;;;;;13.43;3.42;;;;;;;;;;5029219;28;20141;-79
2021/06/22 10:24:44;;;;;;;11.57;3.85;;;;;;;;;;5062810;28;20080;-79
2021/06/22 10:27:13;;;;;;;7.65;2.72;;;;;;;;;;5049275;28;20159;-79
2021/06/22 10:29:42;;;;;;;10.82;2.85;;;;;;;;;;5066211;28;20135;-79
2021/06/22 10:32:09;;;;;;;12.30;3.05;;;;;;;;;;5066872;28;20748;-79
2021/06/22 10:34:37;;;;;;;20.15;3.00;;;;;;;;;;5033353;28;20051;-79
2021/06/22 10:37:04;;;;;;;15.68;3.30;;;;;;;;;;5028075;28;20080;-79
2021/06/22 10:39:31;;;;;;;9.70;2.90;;;;;;;;;;5046560;28;20155;-80
2021/06/22 10:42:05;;;;;;;13.95;3.17;;;;;;;;;;5028850;28;20049;-79
2021/06/22 10:44:34;;;;;;;11.18;3.22;;;;;;;;;;5042143;28;20056;-79
2021/06/22 10:47:16;;;;;;;6.65;2.58;;;;;;;;;;5066158;28;20041;-79
2021/06/22 10:50:00;;;;;;;9.20;2.85;;;;;;;;;;5066505;28;20768;-79
2021/06/22 10:52:48;;;;;;;7.45;2.83;;;;;;;;;;5065824;28;20048;-79
2021/06/22 10:55:20;;;;;;;12.90;3.40;;;;;;;;;;5044774;28;20489;-80
2021/06/22 10:57:58;;;;;;;11.18;2.78;;;;;;;;;;5036066;28;20103;-79
2021/06/22 11:00:25;;;;;;;7.82;2.47;;;;;;;;;;5066005;28;20131;-79
2021/06/22 11:02:59;;;;;;;9.10;3.83;;;;;;;;;;5053830;28;20160;-80
2021/06/22 11:05:26;;;;;;;7.60;2.53;;;;;;;;;;5057645;28;20175;-79
2021/06/22 11:08:09;;;;;;;13.68;2.70;;;;;;;;;;5047789;28;20139;-79
2021/06/22 11:10:37;;;;;;;7.82;2.38;;;;;;;;;;5048031;28;20052;-79
2021/06/22 11:13:04;;;;;;;9.05;2.67;;;;;;;;;;5052141;28;20230;-81
2021/06/22 11:15:53;;;;;;;12.07;2.85;;;;;;;;;;5046210;28;20251;-80
2021/06/22 11:18:21;;;;;;;11.57;2.78;;;;;;;;;;5065725;28;20463;-80
2021/06/22 11:20:54;;;;;;;12.63;3.42;;;;;;;;;;5047970;28;20048;-80
2021/06/22 11:23:23;;;;;;;12.18;3.10;;;;;;;;;;5047511;28;20076;-80
2021/06/22 11:25:53;;;;;;;16.55;3.60;;;;;;;;;;5047618;28;20131;-80
2021/06/22 11:28:22;;;;;;;12.38;2.80;;;;;;;;;;5066499;28;20059;-79
2021/06/22 11:30:50;;;;;;;11.32;2.90;;;;;;;;;;5047067;28;20096;-80
2021/06/22 11:33:39;;;;;;;9.60;2.65;;;;;;;;;;5055555;28;20088;-80
2021/06/22 11:36:15;;;;;;;9.38;2.88;;;;;;;;;;5049992;28;20066;-80
2021/06/22 11:38:43;;;;;;;10.13;2.88;;;;;;;;;;5052357;28;20151;-80
2021/06/22 11:41:14;;;;;;;21.85;4.30;;;;;;;;;;5069732;28;20151;-80
2021/06/22 11:44:00;;;;;;;7.63;2.08;;;;;;;;;;5034534;28;20088;-80
2021/06/22 11:46:31;;;;;;;10.93;2.80;;;;;;;;;;5051098;28;20048;-80
2021/06/22 11:48:59;;;;;;;12.15;2.53;;;;;;;;;;5051000;28;20057;-81
2021/06/22 11:51:45;;;;;;;9.98;2.35;;;;;;;;;;5052274;28;20389;-80
2021/06/22 11:54:13;;;;;;;9.55;2.50;;;;;;;;;;5031556;28;20057;-80
2021/06/22 11:56:40;;;;;;;16.92;2.78;;;;;;;;;;5048624;28;20076;-80
2021/06/22 11:59:08;;;;;;;10.85;2.95;;;;;;;;;;5048452;28;20049;-81
2021/06/22 12:01:35;;;;;;;6.20;2.33;;;;;;;;;;5048879;28;20132;-81
2021/06/22 12:04:05;;;;;;;17.55;3.72;;;;;;;;;;5038034;28;20044;-80
2021/06/22 12:06:32;;;;;;;12.00;2.70;;;;;;;;;;5046549;28;20149;-81
2021/06/22 12:08:59;;;;;;;14.75;3.10;;;;;;;;;;5031259;28;20139;-80
2021/06/22 12:11:28;;;;;;;9.75;2.85;;;;;;;;;;5043053;28;20162;-81
2021/06/22 12:13:56;;;;;;;9.63;3.30;;;;;;;;;;5063364;28;20460;-80
2021/06/22 12:16:26;;;;;;;10.60;3.22;;;;;;;;;;5029940;28;20088;-80
2021/06/22 12:18:55;;;;;;;23.92;4.25;;;;;;;;;;5047339;28;20052;-80
2021/06/22 12:21:22;;;;;;;9.93;2.35;;;;;;;;;;5040854;28;20127;-80
2021/06/22 12:23:49;;;;;;;22.65;3.80;;;;;;;;;;5067040;28;20087;-80
2021/06/22 12:26:17;;;;;;;13.43;2.80;;;;;;;;;;5067283;28;20145;-79
2021/06/22 12:28:45;;;;;;;9.20;2.75;;;;;;;;;;5045572;28;20048;-81
2021/06/22 12:31:13;;;;;;;10.07;3.38;;;;;;;;;;5046578;28;20144;-80
2021/06/22 12:33:49;;;;;;;10.40;2.28;;;;;;;;;;5042054;28;20144;-80
2021/06/22 12:36:19;;;;;;;8.07;2.78;;;;;;;;;;5031353;28;20143;-80
2021/06/22 12:38:49;;;;;;;13.93;2.90;;;;;;;;;;5050525;28;20546;-80
2021/06/22 12:41:16;;;;;;;20.15;3.08;;;;;;;;;;5047990;28;20052;-80
2021/06/22 12:43:54;;;;;;;11.82;2.80;;;;;;;;;;5049845;28;20044;-80
2021/06/22 12:46:25;;;;;;;6.85;2.17;;;;;;;;;;5066612;28;20151;-80
2021/06/22 12:48:56;;;;;;;12.95;3.00;;;;;;;;;;5049482;28;20053;-80
2021/06/22 12:51:24;;;;;;;9.25;2.53;;;;;;;;;;5046805;28;20055;-80
2021/06/22 12:53:51;;;;;;;15.70;3.58;;;;;;;;;;5046170;28;20203;-80
2021/06/22 12:56:20;;;;;;;16.27;2.58;;;;;;;;;;5028172;28;20055;-80
2021/06/22 12:58:49;;;;;;;11.68;2.85;;;;;;;;;;5067472;28;20570;-80
2021/06/22 13:01:28;;;;;;;10.82;2.85;;;;;;;;;;5041854;23;20963;-80
2021/06/22 13:03:56;;;;;;;11.73;2.53;;;;;;;;;;5014280;28;20078;-80
2021/06/22 13:06:30;;;;;;;13.45;3.00;;;;;;;;;;5012048;28;20159;-80
2021/06/22 13:08:58;;;;;;;15.80;2.55;;;;;;;;;;5026293;28;20514;-80
2021/06/22 13:11:29;;;;;;;9.70;3.08;;;;;;;;;;5024384;28;20089;-81
2021/06/22 13:23:02;;;;;;;6.45;2.55;;;;;;;;;;5008232;28;20133;-80
2021/06/22 13:25:30;;;;;;;7.07;3.03;;;;;;;;;;5007632;28;20081;-81
2021/06/22 13:28:11;;;;;;;10.65;2.45;;;;;;;;;;5007185;28;20734;-80
2021/06/22 13:30:41;;;;;;;9.10;2.55;;;;;;;;;;5006170;28;20561;-82
2021/06/22 13:33:08;;;;;;;6.40;2.28;;;;;;;;;;5013258;28;20096;-81
2021/06/22 13:35:37;;;;;;;9.50;3.10;;;;;;;;;;5012785;28;20137;-81
2021/06/22 13:38:06;;;;;;;8.65;2.50;;;;;;;;;;5007777;28;20048;-81
2021/06/22 13:40:53;;;;;;;7.13;2.40;;;;;;;;;;5007827;28;20046;-81
2021/06/22 13:46:19;;;;;;;7.93;2.35;;;;;;;;;;5005305;28;20088;-83
2021/06/22 13:48:49;;;;;;;8.15;2.33;;;;;;;;;;5007671;28;20046;-81
2021/06/22 13:51:27;;;;;;;8.95;2.38;;;;;;;;;;5005299;28;20124;-80
2021/06/22 13:54:08;;;;;;;5.13;2.13;;;;;;;;;;5008048;28;20142;-81
2021/06/22 13:56:36;;;;;;;8.13;2.78;;;;;;;;;;5007005;28;20085;-81
2021/06/22 13:59:07;;;;;;;13.15;2.75;;;;;;;;;;5006053;28;20574;-80
2021/06/22 14:01:35;;;;;;;5.95;2.28;;;;;;;;;;5008211;28;20052;-80
2021/06/22 14:04:02;;;;;;;12.55;2.65;;;;;;;;;;5007532;28;20128;-80
2021/06/22 14:06:30;;;;;;;7.20;2.35;;;;;;;;;;5005906;28;20072;-82
2021/06/22 14:08:57;;;;;;;14.48;2.78;;;;;;;;;;5005911;28;20538;-80
2021/06/22 14:11:24;;;;;;;6.20;2.88;;;;;;;;;;4990709;28;20154;-80
2021/06/22 14:13:55;;;;;;;9.35;2.60;;;;;;;;;;4926143;29;20169;-81
2021/06/22 14:16:30;;;;;;;10.33;3.03;;;;;;;;;;4924357;29;20164;-81
2021/06/22 14:18:57;;;;;;;21.77;3.42;;;;;;;;;;4925498;29;20083;-80
2021/06/22 14:21:25;;;;;;;8.60;2.67;;;;;;;;;;4927118;28;20079;-80
2021/06/22 14:23:52;;;;;;;8.07;2.85;;;;;;;;;;4926869;29;20496;-80
2021/06/22 14:26:20;;;;;;;6.93;2.67;;;;;;;;;;4924646;29;20083;-81
2021/06/22 14:28:47;;;;;;;7.60;2.53;;;;;;;;;;4928095;29;20079;-81
2021/06/22 14:31:14;;;;;;;7.85;2.70;;;;;;;;;;4928124;29;20142;-80
2021/06/22 14:33:42;;;;;;;9.00;2.80;;;;;;;;;;4910691;28;20503;-81
2021/06/22 14:36:09;;;;;;;12.73;2.75;;;;;;;;;;4915729;29;20756;-81
2021/06/22 14:38:36;;;;;;;7.43;2.65;;;;;;;;;;4928489;29;20147;-81
2021/06/22 14:41:04;;;;;;;11.02;2.10;;;;;;;;;;4927895;29;20062;-80
2021/06/22 14:43:31;;;;;;;7.32;2.65;;;;;;;;;;4925505;29;20568;-81
2021/06/22 14:45:58;;;;;;;4.25;2.25;;;;;;;;;;4925214;28;20440;-80
2021/06/22 14:48:26;;;;;;;8.00;2.90;;;;;;;;;;4924040;29;20063;-80
2021/06/22 14:50:53;;;;;;;12.30;3.45;;;;;;;;;;4926221;29;20063;-80
2021/06/22 14:53:22;;;;;;;6.15;2.80;;;;;;;;;;4925484;28;20066;-81
2021/06/22 14:55:49;;;;;;;8.63;2.95;;;;;;;;;;4925391;29;20051;-80
2021/06/22 14:58:20;;;;;;;12.57;3.78;;;;;;;;;;4924874;29;20206;-80
2021/06/22 15:00:51;;;;;;;11.77;2.78;;;;;;;;;;4925478;28;20509;-82
2021/06/22 15:03:18;;;;;;;8.55;3.22;;;;;;;;;;4924632;28;20768;-81